Time;durP1;ratioP1;P1;durP2;ratioP2;P2;SDS_P1;SDS_P2;PMS_P1;PMS_P2;Temp;Humidity;BMP_temperature;BMP_pressure;BME280_temperature;BME280_humidity;BME280_pressure;Samples;Min_cycle;Max_cycle;Signal;HPM_P1;HPM_P2
2021/08/30 00:01:36;;;;;;;20.60;14.07;;;17.10;94.90;;;;;;5056849;28;20035;-84
2021/08/30 00:04:02;;;;;;;25.30;14.27;;;17.10;94.60;;;;;;5055663;28;20102;-84
2021/08/30 00:06:27;;;;;;;21.73;13.98;;;17.10;94.60;;;;;;5056569;28;20490;-84
2021/08/30 00:08:53;;;;;;;18.20;12.85;;;17.10;94.70;;;;;;5074692;28;20078;-84
2021/08/30 00:11:19;;;;;;;21.48;13.75;;;17.10;94.70;;;;;;5056698;28;20100;-83
2021/08/30 00:13:46;;;;;;;21.83;13.95;;;17.00;94.50;;;;;;5039837;28;20059;-84
2021/08/30 00:16:11;;;;;;;17.20;12.20;;;17.00;94.50;;;;;;5059171;28;20099;-84
2021/08/30 00:18:38;;;;;;;23.08;13.93;;;17.10;94.50;;;;;;5074327;28;20538;-84
2021/08/30 00:21:03;;;;;;;19.15;13.05;;;17.00;94.50;;;;;;5074324;28;20704;-84
2021/08/30 00:23:29;;;;;;;18.80;12.82;;;17.10;94.60;;;;;;5056594;28;20029;-84
2021/08/30 00:25:54;;;;;;;25.00;14.75;;;17.00;94.60;;;;;;5074069;28;20048;-84
2021/08/30 00:28:20;;;;;;;25.23;15.65;;;17.10;94.90;;;;;;5040076;28;20020;-84
2021/08/30 00:30:46;;;;;;;22.98;14.73;;;17.00;94.60;;;;;;5074293;28;20041;-84
2021/08/30 00:33:12;;;;;;;23.60;15.45;;;17.10;94.60;;;;;;5073844;28;20028;-84
2021/08/30 00:35:37;;;;;;;24.10;15.07;;;17.10;94.50;;;;;;5056165;28;20107;-83
2021/08/30 00:38:05;;;;;;;21.27;14.68;;;17.00;94.50;;;;;;5073477;28;20045;-84
2021/08/30 00:40:31;;;;;;;24.65;15.48;;;17.10;94.50;;;;;;5053509;28;20435;-84
2021/08/30 00:42:59;;;;;;;20.80;14.57;;;17.10;94.50;;;;;;5071931;28;20024;-84
2021/08/30 00:45:24;;;;;;;29.00;15.73;;;17.00;94.40;;;;;;5053423;28;20054;-84
2021/08/30 00:47:52;;;;;;;26.08;13.98;;;17.00;94.40;;;;;;5070965;28;20021;-85
2021/08/30 00:50:18;;;;;;;23.33;15.07;;;17.00;94.40;;;;;;5055126;28;20028;-84
2021/08/30 00:52:44;;;;;;;22.13;14.77;;;17.00;94.40;;;;;;5073448;28;20108;-84
2021/08/30 00:55:10;;;;;;;23.23;15.00;;;17.00;94.40;;;;;;5073847;28;20507;-84
2021/08/30 00:57:36;;;;;;;21.92;14.52;;;17.00;94.40;;;;;;5073751;28;20047;-85
2021/08/30 01:00:04;;;;;;;23.17;15.70;;;17.00;94.40;;;;;;5073381;28;20119;-84
2021/08/30 01:02:29;;;;;;;24.30;16.75;;;16.90;94.30;;;;;;5039310;28;20028;-84
2021/08/30 01:04:55;;;;;;;31.38;17.42;;;16.90;94.30;;;;;;5055832;28;20043;-84
2021/08/30 01:07:38;;;;;;;24.58;17.90;;;16.90;94.30;;;;;;5038927;28;20055;-84
2021/08/30 01:10:09;;;;;;;23.98;15.13;;;16.90;94.30;;;;;;5050163;28;20504;-84
2021/08/30 01:12:51;;;;;;;21.98;15.30;;;16.90;94.40;;;;;;5073331;28;20043;-84
2021/08/30 01:15:21;;;;;;;24.20;14.60;;;17.00;94.50;;;;;;5052757;28;20061;-84
2021/08/30 01:17:48;;;;;;;26.20;16.35;;;17.00;94.40;;;;;;5070050;28;20047;-84
2021/08/30 01:20:41;;;;;;;28.83;16.27;;;16.90;94.40;;;;;;5072775;28;20035;-84
2021/08/30 01:23:08;;;;;;;23.65;15.32;;;17.00;94.40;;;;;;5054836;28;20104;-84
2021/08/30 01:25:35;;;;;;;27.70;16.23;;;17.00;94.40;;;;;;5072974;28;20055;-85
2021/08/30 01:28:00;;;;;;;25.15;14.77;;;17.00;94.40;;;;;;5038356;28;20036;-84
2021/08/30 01:30:31;;;;;;;25.23;16.00;;;16.90;94.40;;;;;;5055084;28;20447;-84
2021/08/30 01:33:00;;;;;;;28.45;16.13;;;17.00;94.40;;;;;;5073181;28;20439;-84
2021/08/30 01:35:26;;;;;;;;;;;16.90;94.40;;;;;;5055243;28;20044;-84
2021/08/30 01:37:56;;;;;;;21.50;14.07;;;17.00;94.40;;;;;;5054983;28;19908;-84
2021/08/30 01:40:24;;;;;;;25.55;17.05;;;16.90;94.50;;;;;;5072999;28;20048;-84
2021/08/30 01:42:53;;;;;;;23.77;15.43;;;16.90;94.40;;;;;;5064757;28;20029;-84
2021/08/30 01:45:22;;;;;;;22.77;15.38;;;16.90;94.40;;;;;;5073021;28;20025;-83
2021/08/30 01:47:49;;;;;;;24.33;16.30;;;16.90;94.30;;;;;;5072990;28;20485;-84
2021/08/30 01:50:18;;;;;;;23.42;16.02;;;16.90;94.30;;;;;;5072920;28;20044;-84
2021/08/30 01:52:44;;;;;;;22.65;15.65;;;16.90;94.70;;;;;;5054937;28;20056;-84
2021/08/30 02:00:43;;;;;;;21.85;15.07;;;16.90;94.40;;;;;;5072807;28;20028;-84
2021/08/30 02:03:14;;;;;;;24.27;15.65;;;16.90;94.50;;;;;;5070343;28;20779;-84
2021/08/30 02:05:41;;;;;;;27.50;17.02;;;16.90;94.50;;;;;;5072440;28;20034;-84
2021/08/30 02:08:07;;;;;;;25.50;16.17;;;16.90;94.50;;;;;;5072714;28;20039;-84
2021/08/30 02:10:33;;;;;;;25.10;15.95;;;16.90;94.50;;;;;;5054797;28;20477;-85
2021/08/30 02:12:58;;;;;;;25.85;15.80;;;16.90;94.50;;;;;;5054674;28;20029;-84
2021/08/30 02:15:24;;;;;;;27.15;17.40;;;16.90;94.50;;;;;;5054808;28;20111;-84
2021/08/30 02:17:55;;;;;;;25.83;17.05;;;16.90;94.50;;;;;;5072691;28;20489;-84
2021/08/30 02:20:27;;;;;;;30.00;18.85;;;16.90;94.50;;;;;;5072558;28;20064;-84
2021/08/30 02:22:52;;;;;;;28.80;18.95;;;16.90;94.50;;;;;;5072361;28;20021;-84
2021/08/30 02:25:19;;;;;;;28.02;17.75;;;16.90;94.40;;;;;;5037920;28;20115;-84
2021/08/30 02:27:46;;;;;;;23.45;17.20;;;16.80;94.50;;;;;;5073163;28;20056;-84
2021/08/30 02:30:34;;;;;;;28.52;16.80;;;16.90;94.50;;;;;;5058291;28;20043;-83
2021/08/30 02:33:06;;;;;;;25.10;17.55;;;16.90;94.60;;;;;;5075807;28;20070;-84
2021/08/30 02:35:33;;;;;;;31.30;16.98;;;16.90;94.60;;;;;;5073296;28;20052;-84
2021/08/30 02:38:00;;;;;;;25.15;14.93;;;16.90;94.80;;;;;;5057802;28;20052;-84
2021/08/30 02:40:27;;;;;;;23.45;16.15;;;16.80;94.50;;;;;;5075577;28;20124;-84
2021/08/30 02:42:58;;;;;;;20.15;14.52;;;16.90;94.60;;;;;;5075710;28;20029;-84
2021/08/30 02:45:25;;;;;;;31.85;17.40;;;16.90;94.60;;;;;;5057610;28;20477;-84
2021/08/30 02:47:51;;;;;;;22.40;16.90;;;16.90;94.80;;;;;;5058138;28;20021;-84
2021/08/30 02:50:18;;;;;;;28.98;14.50;;;16.90;94.50;;;;;;5075959;28;20021;-84
2021/08/30 02:52:47;;;;;;;24.52;16.45;;;16.90;94.50;;;;;;5057839;28;20126;-84
2021/08/30 02:55:13;;;;;;;22.30;15.77;;;16.80;94.50;;;;;;5058198;28;20039;-84
2021/08/30 02:57:41;;;;;;;22.20;15.18;;;16.90;94.50;;;;;;5075871;28;20051;-84
2021/08/30 03:00:07;;;;;;;25.63;16.77;;;16.90;94.50;;;;;;5075429;28;20029;-84
2021/08/30 03:02:36;;;;;;;22.27;14.15;;;16.80;94.40;;;;;;5075359;28;20040;-84
2021/08/30 03:05:02;;;;;;;23.73;14.90;;;16.90;94.50;;;;;;5041460;28;20044;-84
2021/08/30 03:07:29;;;;;;;23.60;14.68;;;16.90;94.50;;;;;;5057397;28;20032;-84
2021/08/30 03:09:58;;;;;;;25.55;15.90;;;16.90;94.60;;;;;;5075096;28;20090;-85
2021/08/30 03:12:32;;;;;;;22.98;15.95;;;16.90;94.60;;;;;;5074960;28;20028;-84
2021/08/30 03:15:03;;;;;;;21.33;15.32;;;16.90;94.80;;;;;;5089685;28;20028;-84
2021/08/30 03:17:31;;;;;;;25.92;15.70;;;16.90;94.50;;;;;;5074762;28;20099;-85
2021/08/30 03:19:57;;;;;;;28.60;16.52;;;16.80;94.50;;;;;;5038809;28;20036;-84
2021/08/30 03:22:25;;;;;;;23.50;16.13;;;16.90;94.50;;;;;;5056847;28;20025;-84
2021/08/30 03:24:51;;;;;;;20.67;15.35;;;16.90;94.50;;;;;;5055640;28;20441;-85
2021/08/30 03:27:17;;;;;;;22.77;16.10;;;16.90;94.50;;;;;;5056643;28;20111;-84
2021/08/30 03:29:44;;;;;;;23.60;16.00;;;16.80;94.40;;;;;;5056907;28;20089;-84
2021/08/30 03:32:12;;;;;;;23.30;13.85;;;16.80;94.50;;;;;;5056953;28;20489;-85
2021/08/30 03:34:39;;;;;;;24.98;15.50;;;16.80;94.50;;;;;;5072342;28;20033;-84
2021/08/30 03:37:07;;;;;;;28.30;16.10;;;16.80;94.50;;;;;;5041094;28;20481;-84
2021/08/30 03:39:33;;;;;;;23.33;15.20;;;16.80;94.50;;;;;;5074158;28;20063;-84
2021/08/30 03:42:00;;;;;;;26.88;15.52;;;16.80;94.50;;;;;;5074882;28;20024;-84
2021/08/30 03:44:26;;;;;;;25.52;15.65;;;16.80;94.50;;;;;;5051607;28;20640;-84
2021/08/30 03:46:53;;;;;;;20.52;14.05;;;16.80;94.50;;;;;;5074781;28;20036;-84
2021/08/30 03:49:20;;;;;;;20.70;14.23;;;16.80;94.50;;;;;;5074720;28;20052;-84
2021/08/30 03:51:47;;;;;;;20.73;13.55;;;16.80;94.50;;;;;;5074761;28;20033;-84
2021/08/30 03:54:13;;;;;;;25.73;14.68;;;16.80;94.50;;;;;;5051149;28;20017;-84
2021/08/30 03:56:39;;;;;;;22.63;13.98;;;16.70;94.50;;;;;;5037444;28;20385;-85
2021/08/30 03:59:05;;;;;;;23.23;15.00;;;16.80;94.50;;;;;;5072143;28;20039;-84
2021/08/30 04:01:32;;;;;;;20.75;13.60;;;16.80;94.50;;;;;;5054479;28;20028;-84
2021/08/30 04:04:00;;;;;;;23.88;14.95;;;16.80;94.50;;;;;;5036925;28;20043;-84
2021/08/30 04:06:31;;;;;;;19.70;13.70;;;16.80;94.50;;;;;;5054181;28;20041;-83
2021/08/30 04:08:58;;;;;;;22.20;13.63;;;16.80;94.50;;;;;;5056432;28;20394;-84
2021/08/30 04:11:25;;;;;;;20.17;14.07;;;16.80;94.50;;;;;;5056500;28;20029;-85
2021/08/30 04:13:52;;;;;;;25.15;14.40;;;16.80;94.50;;;;;;5074506;28;20035;-84
2021/08/30 04:16:19;;;;;;;29.63;14.50;;;16.80;94.50;;;;;;5056686;28;20362;-84
2021/08/30 04:18:45;;;;;;;22.38;13.80;;;16.80;94.50;;;;;;5056202;28;20024;-83
2021/08/30 04:21:10;;;;;;;18.90;13.63;;;16.70;94.50;;;;;;5056233;28;20024;-85
2021/08/30 04:23:36;;;;;;;24.48;14.65;;;16.80;94.50;;;;;;5073634;28;20028;-84
2021/08/30 04:26:02;;;;;;;24.65;15.13;;;16.80;94.80;;;;;;5056300;28;20033;-84
2021/08/30 04:28:27;;;;;;;20.73;13.73;;;16.80;94.80;;;;;;5055909;28;20095;-84
2021/08/30 04:30:53;;;;;;;20.85;13.90;;;16.70;94.50;;;;;;5056120;28;20047;-84
2021/08/30 04:33:21;;;;;;;20.80;14.05;;;16.80;94.50;;;;;;5056082;28;20064;-84
2021/08/30 04:35:47;;;;;;;20.70;14.70;;;16.80;94.50;;;;;;5056019;28;20028;-84
2021/08/30 04:38:13;;;;;;;19.85;13.45;;;16.70;94.50;;;;;;5055862;28;20043;-84
2021/08/30 04:40:40;;;;;;;19.60;12.82;;;16.80;94.50;;;;;;5038987;28;20055;-84
2021/08/30 04:43:08;;;;;;;24.02;14.23;;;16.80;94.50;;;;;;5073979;28;20089;-85
2021/08/30 04:45:34;;;;;;;26.70;14.68;;;16.80;94.50;;;;;;5038810;28;20040;-84
2021/08/30 04:48:00;;;;;;;25.08;15.27;;;16.80;94.50;;;;;;5073817;28;20025;-84
2021/08/30 04:50:25;;;;;;;24.85;16.63;;;16.80;94.50;;;;;;5072916;28;20040;-83
2021/08/30 04:52:51;;;;;;;25.38;14.77;;;16.80;94.50;;;;;;5056052;28;20115;-84
2021/08/30 04:55:16;;;;;;;24.45;15.27;;;16.80;94.50;;;;;;5073665;28;20039;-84
2021/08/30 04:57:42;;;;;;;27.63;15.88;;;16.80;94.50;;;;;;5055870;28;20044;-84
2021/08/30 05:00:08;;;;;;;26.42;13.88;;;16.70;94.50;;;;;;5055615;28;20103;-84
2021/08/30 05:02:34;;;;;;;22.85;14.32;;;16.70;94.50;;;;;;5055506;28;20036;-84
2021/08/30 05:05:00;;;;;;;21.17;14.73;;;16.80;94.50;;;;;;5055442;28;20021;-84
2021/08/30 05:07:25;;;;;;;21.38;14.43;;;16.80;94.50;;;;;;5073046;28;20385;-84
2021/08/30 05:09:51;;;;;;;27.52;16.27;;;16.80;94.50;;;;;;5074222;28;20497;-85
2021/08/30 05:12:16;;;;;;;25.73;14.23;;;16.80;94.50;;;;;;5057367;28;20035;-85
2021/08/30 05:14:42;;;;;;;32.42;18.15;;;16.80;94.50;;;;;;5055581;28;20042;-85
2021/08/30 05:17:08;;;;;;;22.77;15.27;;;16.80;94.50;;;;;;5073424;28;20037;-85
2021/08/30 05:19:33;;;;;;;27.67;17.15;;;16.80;94.50;;;;;;5055414;28;20032;-85
2021/08/30 05:21:59;;;;;;;22.27;15.50;;;16.80;94.40;;;;;;5038586;28;20029;-84
2021/08/30 05:24:24;;;;;;;22.13;14.98;;;16.80;94.50;;;;;;5055465;28;20094;-84
2021/08/30 05:26:50;;;;;;;28.83;17.95;;;16.80;94.50;;;;;;5073196;28;20055;-85
2021/08/30 05:29:16;;;;;;;23.88;15.52;;;16.80;94.50;;;;;;5073239;28;20527;-85
2021/08/30 05:31:43;;;;;;;32.03;18.27;;;16.80;94.50;;;;;;5072947;28;20082;-85
2021/08/30 05:34:09;;;;;;;27.83;18.92;;;16.80;94.50;;;;;;5073251;28;20021;-85
2021/08/30 05:36:34;;;;;;;26.90;16.17;;;16.80;94.50;;;;;;5038707;28;20539;-84
2021/08/30 05:39:00;;;;;;;27.15;15.60;;;16.80;94.50;;;;;;5054953;28;20048;-85
2021/08/30 05:41:26;;;;;;;25.40;16.80;;;16.80;94.50;;;;;;5055055;28;20028;-86
2021/08/30 05:43:51;;;;;;;28.88;18.35;;;16.80;94.50;;;;;;5072940;28;20052;-84
2021/08/30 05:46:17;;;;;;;23.38;16.30;;;16.90;94.50;;;;;;5073053;28;20095;-84
2021/08/30 05:48:48;;;;;;;25.60;17.10;;;16.80;94.50;;;;;;5072957;28;20081;-84
2021/08/30 05:51:14;;;;;;;24.20;16.52;;;16.90;94.50;;;;;;5073441;28;20021;-84
2021/08/30 05:53:40;;;;;;;28.35;16.45;;;16.90;94.50;;;;;;5073273;28;20110;-84
2021/08/30 05:56:06;;;;;;;29.15;16.95;;;16.90;94.50;;;;;;5055618;28;20036;-84
2021/08/30 05:58:32;;;;;;;32.85;19.20;;;16.90;94.50;;;;;;5054942;28;20025;-84
2021/08/30 06:00:58;;;;;;;27.73;17.27;;;16.90;94.50;;;;;;5055340;28;20048;-84
2021/08/30 06:03:23;;;;;;;31.38;18.65;;;16.90;94.50;;;;;;5055237;28;20493;-84
2021/08/30 06:05:49;;;;;;;30.05;17.30;;;16.90;94.50;;;;;;5073203;28;20460;-84
2021/08/30 06:08:14;;;;;;;29.40;16.98;;;16.90;94.50;;;;;;5055340;28;20025;-84
2021/08/30 06:10:40;;;;;;;29.98;17.85;;;16.90;94.50;;;;;;5054916;28;20444;-85
2021/08/30 06:13:05;;;;;;;26.58;19.05;;;17.00;94.50;;;;;;5072617;28;20445;-84
2021/08/30 06:15:31;;;;;;;26.30;16.50;;;17.00;94.50;;;;;;5072626;28;20036;-84
2021/08/30 06:17:57;;;;;;;29.13;19.05;;;17.00;94.40;;;;;;5054871;28;20036;-84
2021/08/30 06:20:22;;;;;;;26.20;17.98;;;17.00;94.40;;;;;;5072469;28;20040;-84
2021/08/30 06:22:48;;;;;;;23.20;16.80;;;17.00;94.40;;;;;;5054399;28;20044;-84
2021/08/30 06:25:14;;;;;;;28.92;18.67;;;17.10;94.50;;;;;;5037829;28;20460;-84
2021/08/30 06:27:40;;;;;;;32.03;18.80;;;17.10;94.50;;;;;;5070256;28;20025;-84
2021/08/30 06:30:06;;;;;;;28.83;18.98;;;17.10;94.40;;;;;;5051863;28;20139;-84
2021/08/30 06:32:31;;;;;;;27.45;18.17;;;17.10;94.40;;;;;;5053751;28;20043;-84
2021/08/30 06:34:57;;;;;;;32.85;18.42;;;17.20;94.40;;;;;;5071884;28;20488;-84
2021/08/30 06:37:23;;;;;;;37.70;21.00;;;17.20;94.40;;;;;;5054237;28;20777;-84
2021/08/30 06:39:49;;;;;;;27.88;18.20;;;17.10;94.30;;;;;;5054015;28;20045;-84
2021/08/30 06:42:14;;;;;;;29.00;18.75;;;17.10;94.30;;;;;;5071936;28;20027;-84
2021/08/30 06:44:41;;;;;;;29.20;18.55;;;17.10;94.30;;;;;;5072304;28;20486;-84
2021/08/30 06:47:07;;;;;;;29.50;19.63;;;17.20;94.30;;;;;;5054390;28;20044;-84
2021/08/30 06:49:33;;;;;;;27.83;17.60;;;17.10;94.30;;;;;;5037704;28;20024;-84
2021/08/30 06:51:58;;;;;;;29.55;20.05;;;17.20;94.40;;;;;;5054323;28;20807;-85
2021/08/30 06:54:24;;;;;;;31.70;20.42;;;17.20;94.30;;;;;;5072151;28;20032;-86
2021/08/30 06:56:49;;;;;;;37.55;21.48;;;17.20;94.40;;;;;;5037508;28;20056;-86
2021/08/30 06:59:15;;;;;;;38.58;22.48;;;17.20;94.40;;;;;;5037450;28;20041;-86
2021/08/30 07:01:40;;;;;;;32.00;19.92;;;17.30;94.40;;;;;;5072268;28;20031;-86
2021/08/30 07:04:06;;;;;;;40.15;22.00;;;17.40;94.30;;;;;;5037679;28;20111;-86
2021/08/30 07:06:32;;;;;;;37.03;23.70;;;17.40;94.30;;;;;;5054063;28;20024;-87
2021/08/30 07:09:01;;;;;;;40.28;22.45;;;17.50;94.10;;;;;;5054025;28;20033;-86
2021/08/30 07:11:26;;;;;;;;;;;17.50;94.10;;;;;;5054277;28;20564;-87
2021/08/30 07:13:52;;;;;;;34.35;20.42;;;17.50;94.00;;;;;;5053676;28;19952;-86
2021/08/30 07:16:18;;;;;;;33.22;20.10;;;17.50;94.00;;;;;;5055391;28;20035;-86
2021/08/30 07:18:43;;;;;;;30.75;20.67;;;17.50;94.00;;;;;;5056370;28;20041;-86
2021/08/30 07:21:09;;;;;;;34.22;22.08;;;17.50;94.00;;;;;;5055542;28;20044;-86
2021/08/30 07:23:36;;;;;;;29.08;20.63;;;17.50;94.10;;;;;;5074106;28;20126;-87
2021/08/30 07:26:02;;;;;;;33.17;21.13;;;17.50;94.00;;;;;;5074995;28;20046;-85
2021/08/30 07:28:28;;;;;;;28.52;19.02;;;17.50;94.00;;;;;;5040626;28;20025;-86
2021/08/30 07:30:53;;;;;;;31.73;21.10;;;17.50;94.00;;;;;;5056960;28;20056;-85
2021/08/30 07:33:19;;;;;;;35.88;20.95;;;17.50;94.20;;;;;;5074864;28;20033;-86
2021/08/30 07:35:45;;;;;;;27.50;19.85;;;17.60;94.00;;;;;;5040004;28;20063;-85
2021/08/30 07:38:10;;;;;;;26.27;18.67;;;17.60;93.90;;;;;;5040020;28;20082;-85
2021/08/30 07:40:36;;;;;;;30.88;19.80;;;17.60;93.80;;;;;;5040104;28;20048;-85
2021/08/30 07:43:02;;;;;;;31.67;20.45;;;17.70;93.80;;;;;;5038133;28;20029;-85
2021/08/30 07:45:27;;;;;;;36.03;20.83;;;17.80;94.00;;;;;;5054936;28;20055;-85
2021/08/30 07:47:53;;;;;;;40.17;20.80;;;17.80;93.70;;;;;;5037872;28;20116;-85
2021/08/30 07:50:19;;;;;;;32.00;19.77;;;17.90;93.60;;;;;;5054885;28;20036;-85
2021/08/30 07:52:45;;;;;;;30.63;20.90;;;18.00;93.60;;;;;;5055670;28;20035;-86
2021/08/30 07:55:11;;;;;;;31.58;20.25;;;18.00;93.40;;;;;;5073109;28;20063;-87
2021/08/30 07:57:37;;;;;;;25.83;17.45;;;18.10;93.20;;;;;;5074332;28;20064;-86
2021/08/30 08:00:04;;;;;;;25.52;16.83;;;18.10;93.00;;;;;;5056849;28;20059;-84
2021/08/30 08:02:30;;;;;;;26.42;18.10;;;18.20;93.00;;;;;;5056772;28;20115;-86
2021/08/30 08:04:56;;;;;;;27.48;17.95;;;18.20;92.80;;;;;;5056430;28;20099;-84
2021/08/30 08:07:22;;;;;;;27.25;19.15;;;18.30;92.80;;;;;;5055996;28;20466;-83
2021/08/30 08:09:47;;;;;;;28.50;18.60;;;18.30;93.00;;;;;;5074400;28;20024;-85
2021/08/30 08:12:13;;;;;;;31.48;18.08;;;18.30;92.80;;;;;;5056433;28;20032;-84
2021/08/30 08:37:44;;;;;;;24.55;16.92;;;18.20;92.00;;;;;;5074337;28;20035;-84
2021/08/30 08:40:12;;;;;;;29.35;17.25;;;18.20;92.20;;;;;;5073860;28;20136;-84
2021/08/30 08:42:40;;;;;;;26.40;17.27;;;18.20;92.30;;;;;;5074330;28;20029;-84
2021/08/30 08:45:09;;;;;;;29.88;18.98;;;18.20;92.40;;;;;;5056485;28;20053;-84
2021/08/30 08:47:39;;;;;;;27.40;17.75;;;18.20;92.50;;;;;;5074550;28;20032;-84
2021/08/30 08:50:07;;;;;;;26.17;16.48;;;18.20;92.50;;;;;;5056615;28;20481;-84
2021/08/30 08:52:34;;;;;;;30.48;17.75;;;18.30;92.40;;;;;;5073946;28;20029;-84
2021/08/30 08:55:00;;;;;;;24.80;16.42;;;18.30;92.40;;;;;;5074381;28;20037;-82
2021/08/30 08:57:26;;;;;;;26.13;17.23;;;18.30;92.40;;;;;;5074325;28;20037;-82
2021/08/30 09:00:06;;;;;;;26.02;17.55;;;18.40;92.40;;;;;;5074232;28;20037;-84
2021/08/30 09:02:36;;;;;;;26.75;17.30;;;18.50;92.50;;;;;;5055128;28;20020;-83
2021/08/30 09:05:06;;;;;;;25.13;16.40;;;18.70;92.30;;;;;;5054958;28;20028;-83
2021/08/30 09:07:40;;;;;;;23.92;16.55;;;18.90;91.90;;;;;;5054609;28;20027;-85
2021/08/30 09:10:11;;;;;;;24.20;15.88;;;19.10;91.50;;;;;;5038246;28;20398;-85
2021/08/30 09:12:37;;;;;;;23.35;16.08;;;19.30;91.10;;;;;;5054093;28;20032;-85
2021/08/30 09:15:25;;;;;;;20.73;15.93;;;19.40;91.00;;;;;;5073688;28;20024;-85
2021/08/30 09:17:55;;;;;;;20.60;15.43;;;19.50;90.90;;;;;;5073636;28;20103;-85
2021/08/30 09:20:23;;;;;;;21.00;14.70;;;19.50;90.90;;;;;;5039687;28;20383;-85
2021/08/30 09:22:50;;;;;;;27.15;15.55;;;19.50;90.50;;;;;;5055827;28;20020;-85
2021/08/30 09:25:16;;;;;;;20.08;13.93;;;19.70;90.60;;;;;;5056004;28;20074;-86
2021/08/30 09:27:45;;;;;;;21.45;15.20;;;19.80;90.20;;;;;;5073734;28;20028;-85
2021/08/30 09:30:12;;;;;;;20.52;15.00;;;19.80;88.70;;;;;;5073656;28;20115;-86
2021/08/30 09:32:40;;;;;;;20.42;13.82;;;19.90;88.50;;;;;;5055172;28;20402;-87
2021/08/30 09:35:07;;;;;;;21.63;13.20;;;19.80;88.10;;;;;;5073195;28;20028;-87
2021/08/30 09:37:41;;;;;;;17.13;13.20;;;19.80;87.90;;;;;;5038790;28;20393;-87
2021/08/30 09:40:11;;;;;;;17.30;12.45;;;19.70;88.20;;;;;;5073180;28;20041;-87
2021/08/30 09:42:44;;;;;;;16.80;13.07;;;19.60;89.00;;;;;;5055624;28;20025;-87
2021/08/30 09:45:16;;;;;;;21.73;13.65;;;19.60;89.30;;;;;;5055555;28;20016;-87
2021/08/30 09:47:54;;;;;;;21.60;13.55;;;19.50;88.50;;;;;;5073501;28;20074;-87
2021/08/30 09:50:37;;;;;;;19.73;12.98;;;19.50;89.10;;;;;;5055469;28;20036;-87
2021/08/30 09:53:04;;;;;;;18.27;11.95;;;19.50;88.40;;;;;;5072979;28;20087;-86
2021/08/30 09:55:31;;;;;;;18.27;11.85;;;19.50;88.70;;;;;;5055423;28;20039;-87
2021/08/30 09:57:58;;;;;;;20.52;12.68;;;19.40;88.40;;;;;;5055268;28;20033;-86
2021/08/30 10:00:24;;;;;;;19.42;11.38;;;19.50;88.50;;;;;;5073032;28;20477;-86
2021/08/30 10:02:53;;;;;;;19.48;11.57;;;19.60;87.70;;;;;;5073229;28;20082;-87
2021/08/30 10:05:20;;;;;;;16.75;10.98;;;19.70;88.20;;;;;;5073194;28;20046;-87
2021/08/30 10:07:47;;;;;;;19.48;11.38;;;19.80;87.20;;;;;;5055453;28;20381;-87
2021/08/30 10:10:14;;;;;;;20.63;12.40;;;19.80;86.90;;;;;;5055331;28;20032;-86
2021/08/30 10:12:41;;;;;;;13.80;10.57;;;19.90;86.60;;;;;;5073355;28;20024;-87
2021/08/30 10:15:09;;;;;;;13.98;10.48;;;20.00;86.10;;;;;;5073109;28;20041;-87
2021/08/30 10:17:35;;;;;;;15.68;10.40;;;20.10;85.60;;;;;;5055273;28;20036;-87
2021/08/30 10:20:03;;;;;;;14.35;10.10;;;20.10;86.00;;;;;;5072999;28;20441;-87
2021/08/30 10:22:29;;;;;;;16.33;11.10;;;20.30;85.80;;;;;;5055307;28;20031;-85
2021/08/30 10:24:55;;;;;;;18.02;10.30;;;20.50;84.70;;;;;;5038271;28;20024;-87
2021/08/30 10:27:34;;;;;;;16.13;10.73;;;20.60;84.90;;;;;;5072806;28;20100;-87
2021/08/30 10:30:10;;;;;;;;;;;20.70;83.70;;;;;;5055458;28;20024;-87
2021/08/30 10:32:38;;;;;;;17.45;10.15;;;20.60;84.20;;;;;;5072922;28;19909;-89
2021/08/30 10:35:18;;;;;;;16.48;10.55;;;20.50;84.70;;;;;;5073271;28;20028;-90
2021/08/30 10:37:51;;;;;;;17.27;10.80;;;20.40;84.40;;;;;;5073213;28;20025;-90
2021/08/30 10:40:19;;;;;;;15.23;11.15;;;20.30;85.70;;;;;;5072969;28;20059;-88
2021/08/30 10:42:57;;;;;;;16.58;10.88;;;20.30;85.70;;;;;;5054795;28;20028;-88
2021/08/30 10:45:30;;;;;;;16.85;12.30;;;20.40;86.30;;;;;;5054854;28;20036;-89
2021/08/30 10:48:03;;;;;;;20.27;12.15;;;20.50;86.60;;;;;;5054882;28;20024;-88
2021/08/30 10:50:30;;;;;;;19.42;12.35;;;20.70;85.80;;;;;;5058452;28;20025;-89
2021/08/30 10:53:04;;;;;;;16.25;13.23;;;20.90;84.50;;;;;;5058712;28;20385;-88
2021/08/30 10:55:36;;;;;;;18.35;13.02;;;20.90;83.90;;;;;;5058791;28;20031;-88
2021/08/30 10:58:12;;;;;;;20.63;12.60;;;20.90;84.80;;;;;;5058468;28;20032;-88
2021/08/30 11:00:38;;;;;;;16.63;12.45;;;20.90;84.30;;;;;;5065355;28;20497;-88
2021/08/30 11:03:04;;;;;;;16.63;11.10;;;20.80;83.90;;;;;;5076685;28;20182;-89
2021/08/30 11:05:31;;;;;;;20.52;11.45;;;20.70;83.80;;;;;;5058759;28;20029;-88
2021/08/30 11:07:57;;;;;;;16.30;11.98;;;20.50;84.00;;;;;;5058223;28;20032;-87
2021/08/30 11:10:25;;;;;;;19.85;12.18;;;20.50;83.00;;;;;;5075638;28;20032;-89
2021/08/30 11:12:51;;;;;;;17.00;12.23;;;20.40;83.90;;;;;;5058192;28;20024;-88
2021/08/30 11:15:17;;;;;;;20.38;11.30;;;20.40;83.60;;;;;;5040876;28;20139;-88
2021/08/30 11:17:43;;;;;;;18.80;11.80;;;20.50;83.70;;;;;;5056885;28;20127;-88
2021/08/30 11:20:09;;;;;;;16.98;11.73;;;20.60;82.70;;;;;;5075767;28;20021;-88
2021/08/30 11:22:35;;;;;;;18.75;11.00;;;20.70;82.60;;;;;;5075961;28;20029;-88
2021/08/30 11:25:02;;;;;;;16.67;11.25;;;20.80;82.10;;;;;;5058118;28;20435;-88
2021/08/30 11:27:30;;;;;;;14.02;10.48;;;20.80;82.00;;;;;;5075707;28;20024;-87
2021/08/30 11:30:02;;;;;;;19.75;13.13;;;20.70;83.00;;;;;;5075736;28;20071;-89
2021/08/30 11:32:30;;;;;;;17.65;12.70;;;20.60;83.50;;;;;;5057856;28;20043;-86
2021/08/30 11:34:56;;;;;;;21.48;14.10;;;20.60;83.80;;;;;;5075177;28;20023;-87
2021/08/30 11:37:24;;;;;;;19.55;12.80;;;20.60;84.00;;;;;;5041182;28;20029;-88
2021/08/30 11:39:52;;;;;;;17.67;12.45;;;20.60;84.00;;;;;;5057796;28;20106;-87
2021/08/30 11:42:20;;;;;;;16.73;12.18;;;20.60;83.50;;;;;;5057815;28;20435;-87
2021/08/30 11:44:47;;;;;;;17.42;11.30;;;20.80;83.00;;;;;;5075823;28;20033;-87
2021/08/30 11:47:15;;;;;;;16.00;11.70;;;20.80;82.50;;;;;;5057646;28;20025;-88
2021/08/30 11:49:51;;;;;;;17.30;10.98;;;20.90;83.00;;;;;;5075656;28;20025;-87
2021/08/30 11:52:23;;;;;;;17.13;11.35;;;21.10;82.20;;;;;;5075804;28;20028;-87
2021/08/30 11:55:06;;;;;;;17.95;11.85;;;21.20;82.80;;;;;;5057792;28;20028;-87
2021/08/30 11:57:48;;;;;;;16.83;11.48;;;21.30;82.80;;;;;;5075586;28;20078;-88
2021/08/30 12:00:22;;;;;;;13.63;10.20;;;21.50;80.90;;;;;;5075210;28;20033;-85
2021/08/30 12:02:50;;;;;;;11.88;9.80;;;21.70;80.40;;;;;;5057536;28;20389;-88
2021/08/30 12:05:16;;;;;;;14.07;9.27;;;22.00;79.70;;;;;;5057432;28;20020;-87
2021/08/30 12:07:42;;;;;;;15.18;9.73;;;22.20;77.60;;;;;;5075299;28;20033;-87
2021/08/30 12:10:10;;;;;;;14.80;9.27;;;22.40;76.20;;;;;;5057335;28;20037;-87
2021/08/30 12:12:51;;;;;;;16.00;9.65;;;22.40;75.50;;;;;;5057442;28;20032;-87
2021/08/30 12:15:23;;;;;;;13.70;9.35;;;22.30;76.60;;;;;;5074874;28;20062;-87
2021/08/30 12:17:51;;;;;;;15.20;9.43;;;22.20;77.60;;;;;;5055836;28;20036;-88
2021/08/30 12:20:26;;;;;;;13.73;9.50;;;22.10;77.80;;;;;;5056080;28;20104;-88
2021/08/30 12:22:57;;;;;;;16.88;10.32;;;22.00;78.10;;;;;;5073977;28;20023;-86
2021/08/30 12:25:29;;;;;;;15.60;11.80;;;21.90;78.50;;;;;;5055437;28;20020;-87
2021/08/30 12:27:56;;;;;;;15.77;11.25;;;21.90;78.50;;;;;;5056166;28;20024;-87
2021/08/30 12:30:30;;;;;;;15.60;11.85;;;21.80;79.70;;;;;;5055946;28;20385;-87
2021/08/30 12:32:59;;;;;;;15.60;11.65;;;21.70;79.40;;;;;;5055585;28;20028;-87
2021/08/30 12:35:40;;;;;;;20.48;11.15;;;21.60;79.70;;;;;;5073481;28;20060;-87
2021/08/30 12:38:06;;;;;;;23.33;11.18;;;21.50;80.10;;;;;;5054800;28;20489;-87
2021/08/30 12:40:34;;;;;;;16.45;11.18;;;21.40;80.60;;;;;;5054826;28;20040;-87
2021/08/30 12:43:01;;;;;;;14.50;10.75;;;21.40;80.60;;;;;;5073850;28;20092;-87
2021/08/30 12:45:27;;;;;;;15.60;11.15;;;21.50;81.00;;;;;;5056998;28;20032;-87
2021/08/30 12:47:53;;;;;;;15.75;10.52;;;21.50;80.50;;;;;;5056843;28;20111;-87
2021/08/30 12:50:19;;;;;;;15.45;10.05;;;21.60;79.60;;;;;;5056663;28;20105;-87
2021/08/30 12:52:44;;;;;;;14.35;10.40;;;21.60;79.20;;;;;;5074500;28;20048;-87
2021/08/30 12:55:11;;;;;;;16.92;10.77;;;21.60;79.60;;;;;;5056411;28;20052;-87
2021/08/30 12:57:37;;;;;;;16.38;9.00;;;21.60;79.50;;;;;;5074363;28;20028;-87
2021/08/30 13:00:10;;;;;;;13.75;9.10;;;21.60;78.10;;;;;;5074163;28;20047;-87